createdAt,value
2023-01-17T00:01:07.039Z,2.08
2023-01-17T00:05:07.875Z,1.95
2023-01-17T00:10:08.073Z,1.77
2023-01-17T00:15:07.857Z,2.03
2023-01-17T00:20:08.668Z,1.70
2023-01-17T00:25:08.447Z,1.65
2023-01-17T00:30:08.293Z,1.70
2023-01-17T00:35:08.080Z,1.38
2023-01-17T00:40:07.891Z,1.80
2023-01-17T00:45:08.705Z,1.80
2023-01-17T00:50:08.536Z,1.80
2023-01-17T00:55:08.351Z,1.80
2023-01-17T01:00:08.083Z,1.50
2023-01-17T01:05:17.055Z,3.60
2023-01-17T01:10:07.858Z,1.90
2023-01-17T01:15:08.659Z,1.45
2023-01-17T01:20:08.457Z,2.03
2023-01-17T01:25:08.240Z,1.75
2023-01-17T01:30:08.020Z,3.80
2023-01-17T01:35:07.825Z,1.48
2023-01-17T01:40:08.647Z,4.80
2023-01-17T01:45:08.435Z,2.55
2023-01-17T01:50:08.338Z,4.10
2023-01-17T01:55:08.128Z,4.72
2023-01-17T02:00:07.943Z,3.75
2023-01-17T02:05:07.773Z,5.65
2023-01-17T02:10:08.631Z,1.38
2023-01-17T02:15:08.423Z,2.28
2023-01-17T02:20:08.292Z,1.75
2023-01-17T02:25:08.082Z,1.38
2023-01-17T02:30:07.835Z,1.25
2023-01-17T02:35:08.625Z,1.20
2023-01-17T02:40:08.416Z,1.20
2023-01-17T02:45:08.195Z,1.40
2023-01-17T02:50:07.967Z,1.10
2023-01-17T02:55:07.787Z,1.30
2023-01-17T03:00:08.607Z,1.30
2023-01-17T03:05:11.510Z,1.25
2023-01-17T03:10:08.307Z,1.48
2023-01-17T03:15:08.146Z,1.25
2023-01-17T03:20:07.990Z,1.00
2023-01-17T03:25:07.782Z,1.55
2023-01-17T03:30:08.679Z,1.25
2023-01-17T03:35:08.495Z,1.83
2023-01-17T03:40:08.307Z,2.65
2023-01-17T03:45:08.123Z,3.45
2023-01-17T03:55:08.180Z,2.08
2023-01-17T04:00:07.979Z,3.25
2023-01-17T04:05:07.832Z,2.50
2023-01-17T04:10:08.711Z,2.50
2023-01-17T04:15:08.516Z,2.13
2023-01-17T04:20:08.344Z,2.28
2023-01-17T04:25:08.155Z,1.98
2023-01-17T04:30:07.965Z,2.63
2023-01-17T04:35:07.773Z,3.60
2023-01-17T04:40:08.615Z,3.10
2023-01-17T04:45:08.439Z,2.15
2023-01-17T04:50:08.234Z,2.40
2023-01-17T04:55:08.033Z,1.90
2023-01-17T05:00:07.819Z,2.20
2023-01-17T05:05:02.697Z,4.53
2023-01-17T05:10:02.679Z,6.72
2023-01-17T05:15:02.713Z,3.03
2023-01-17T05:20:03.019Z,2.72
2023-01-17T05:25:01.960Z,2.60
2023-01-17T05:30:02.804Z,2.40
2023-01-17T05:35:02.850Z,2.40
2023-01-17T05:40:03.016Z,2.63
2023-01-17T05:45:01.991Z,3.83
2023-01-17T05:50:02.057Z,2.75
2023-01-17T05:55:02.122Z,3.58
2023-01-17T06:00:02.263Z,3.25
2023-01-17T06:05:03.649Z,2.38
2023-01-17T06:10:02.619Z,3.17
2023-01-17T06:15:02.685Z,3.75
2023-01-17T06:20:02.966Z,2.78
2023-01-17T06:25:01.884Z,4.18
2023-01-17T06:30:02.938Z,1.70
2023-01-17T06:35:01.946Z,2.42
2023-01-17T06:40:02.077Z,4.93
2023-01-17T06:45:01.969Z,3.33
2023-01-17T06:50:01.963Z,2.58
2023-01-17T06:55:02.006Z,2.80
2023-01-17T07:00:02.123Z,5.80
2023-01-17T07:05:02.201Z,4.00
2023-01-17T07:10:02.241Z,5.15
2023-01-17T07:15:02.369Z,7.47
2023-01-17T07:20:02.542Z,12.20
2023-01-17T07:25:02.592Z,11.48
2023-01-17T07:30:02.653Z,11.18
2023-01-17T07:35:02.723Z,16.05
2023-01-17T07:40:02.789Z,15.98
2023-01-17T07:45:03.052Z,13.40
2023-01-17T07:50:02.129Z,12.52
2023-01-17T07:55:02.209Z,11.68
2023-01-17T08:00:02.240Z,11.50
2023-01-17T08:05:02.176Z,14.50
2023-01-17T08:10:02.125Z,13.25
2023-01-17T08:15:02.100Z,17.88
2023-01-17T08:20:02.023Z,16.55
2023-01-17T08:25:01.909Z,13.50
2023-01-17T08:30:03.115Z,13.13
2023-01-17T08:35:02.187Z,15.15
2023-01-17T08:40:02.147Z,16.00
2023-01-17T08:45:02.278Z,15.40
2023-01-17T08:50:02.357Z,13.10
2023-01-17T08:55:02.395Z,16.77
2023-01-17T09:00:02.378Z,20.58
2023-01-17T09:05:02.367Z,16.08
2023-01-17T09:10:02.469Z,16.55
2023-01-17T09:15:02.573Z,16.50
2023-01-17T09:20:02.565Z,23.67
2023-01-17T09:25:02.581Z,17.80
2023-01-17T09:30:02.820Z,26.00
2023-01-17T09:35:03.098Z,22.30
2023-01-17T09:40:02.184Z,17.48
2023-01-17T09:45:02.177Z,15.25
2023-01-17T09:50:02.130Z,13.55
2023-01-17T09:55:02.390Z,13.38
2023-01-17T10:00:03.797Z,13.82
2023-01-17T10:05:02.231Z,18.10
2023-01-17T10:10:02.413Z,12.85
2023-01-17T10:15:12.387Z,0
2023-01-17T10:20:02.410Z,12.98
2023-01-17T10:25:02.519Z,14.05
2023-01-17T10:30:02.750Z,16.92
2023-01-17T10:35:02.765Z,10.13
2023-01-17T10:40:02.684Z,13.07
2023-01-17T10:45:02.654Z,10.93
2023-01-17T10:50:02.668Z,8.13
2023-01-17T10:55:02.659Z,8.50
2023-01-17T11:00:02.761Z,7.30
2023-01-17T11:05:04.576Z,6.95
2023-01-17T11:10:02.585Z,9.30
2023-01-17T11:15:02.538Z,6.03
2023-01-17T11:20:02.487Z,11.90
2023-01-17T11:25:02.581Z,8.80
2023-01-17T11:30:12.584Z,0
2023-01-17T11:35:02.485Z,6.72
2023-01-17T11:40:02.546Z,10.52
2023-01-17T11:45:02.514Z,5.72
2023-01-17T11:50:02.552Z,8.32
2023-01-17T11:55:02.496Z,10.25
2023-01-17T12:00:02.375Z,6.70
2023-01-17T12:05:02.399Z,4.57
2023-01-17T12:10:02.317Z,5.03
2023-01-17T12:15:02.272Z,8.88
2023-01-17T12:20:05.110Z,5.43
2023-01-17T12:25:02.012Z,9.30
2023-01-17T12:30:02.038Z,7.40
2023-01-17T12:35:01.894Z,7.35
2023-01-17T12:40:02.922Z,8.05
2023-01-17T12:45:02.781Z,4.80
2023-01-17T12:50:02.689Z,4.40
2023-01-17T12:55:02.551Z,3.90
2023-01-17T13:00:12.552Z,0
2023-01-17T13:05:02.522Z,3.88
2023-01-17T13:10:02.402Z,2.75
2023-01-17T13:15:02.495Z,4.95
2023-01-17T13:20:02.561Z,2.47
2023-01-17T13:25:02.648Z,2.20
2023-01-17T13:30:02.674Z,4.95
2023-01-17T13:35:12.546Z,0
2023-01-17T13:40:02.415Z,2.58
2023-01-17T13:45:02.337Z,5.18
2023-01-17T13:50:02.175Z,2.55
2023-01-17T13:55:02.108Z,2.38
2023-01-17T14:00:02.045Z,3.97
2023-01-17T14:05:01.952Z,4.07
2023-01-17T14:10:01.916Z,3.42
2023-01-17T14:15:02.932Z,3.20
2023-01-17T14:20:01.918Z,2.53
2023-01-17T14:25:12.791Z,0
2023-01-17T14:30:02.644Z,2.65
2023-01-17T14:35:02.557Z,4.43
2023-01-17T14:40:02.512Z,1.90
2023-01-17T14:45:02.436Z,2.05
2023-01-17T14:50:02.255Z,2.20
2023-01-17T14:55:02.209Z,1.95
2023-01-17T15:00:02.122Z,2.85
2023-01-17T15:05:02.085Z,2.38
2023-01-17T15:10:01.981Z,3.85
2023-01-17T15:15:02.005Z,2.00
2023-01-17T15:20:01.914Z,1.95
2023-01-17T15:25:01.776Z,2.00
2023-01-17T15:30:02.806Z,2.08
2023-01-17T15:35:02.744Z,2.08
2023-01-17T15:40:02.777Z,2.80
2023-01-17T15:45:02.766Z,2.72
2023-01-17T15:50:02.822Z,3.30
2023-01-17T15:55:02.787Z,1.90
2023-01-17T16:00:02.628Z,3.80
2023-01-17T16:05:02.550Z,2.60
2023-01-17T16:10:02.492Z,3.80
2023-01-17T16:15:12.519Z,2.72
2023-01-17T16:20:02.258Z,4.78
2023-01-17T16:25:02.159Z,4.05
2023-01-17T16:30:02.255Z,3.15
2023-01-17T16:35:02.135Z,2.75
2023-01-17T16:40:02.057Z,2.78
2023-01-17T16:45:01.970Z,3.08
2023-01-17T16:50:01.822Z,2.53
2023-01-17T16:55:02.677Z,4.30
2023-01-17T17:00:02.584Z,2.85
2023-01-17T17:05:02.541Z,3.45
2023-01-17T17:10:02.478Z,5.57
2023-01-17T17:15:02.397Z,7.72
2023-01-17T17:20:02.317Z,7.82
2023-01-17T17:25:02.167Z,12.65
2023-01-17T17:30:02.187Z,16.13
2023-01-17T17:35:02.114Z,12.93
2023-01-17T17:40:02.049Z,14.57
2023-01-17T17:45:01.991Z,13.30
2023-01-17T17:50:01.886Z,12.35
2023-01-17T17:55:02.782Z,8.98
2023-01-17T18:00:02.730Z,10.50
2023-01-17T18:05:02.712Z,8.98
2023-01-17T18:10:02.653Z,14.48
2023-01-17T18:15:02.577Z,8.48
2023-01-17T18:20:02.508Z,9.98
2023-01-17T18:25:02.454Z,10.93
2023-01-17T18:30:02.374Z,7.57
2023-01-17T18:35:02.199Z,8.15
2023-01-17T18:40:02.113Z,11.65
2023-01-17T18:45:01.976Z,12.85
2023-01-17T18:50:01.907Z,10.40
2023-01-17T18:55:02.752Z,9.15
2023-01-17T19:00:02.654Z,7.00
2023-01-17T19:05:02.524Z,6.88
2023-01-17T19:10:02.489Z,6.50
2023-01-17T19:15:02.581Z,7.88
2023-01-17T19:20:02.510Z,6.90
2023-01-17T19:25:02.464Z,9.88
2023-01-17T19:30:02.465Z,9.63
2023-01-17T19:35:02.419Z,9.18
2023-01-17T19:40:02.364Z,7.43
2023-01-17T19:45:02.264Z,6.47
2023-01-17T19:50:02.192Z,8.30
2023-01-17T19:55:02.151Z,9.18
2023-01-17T20:00:02.068Z,7.57
2023-01-17T20:05:02.358Z,7.80
2023-01-17T20:10:02.324Z,8.30
2023-01-17T20:15:02.271Z,6.88
2023-01-17T20:20:02.225Z,8.02
2023-01-17T20:25:02.107Z,9.80
2023-01-17T20:30:18.562Z,6.65
2023-01-17T20:35:02.402Z,6.55
2023-01-17T20:40:02.318Z,4.97
2023-01-17T20:45:02.288Z,6.72
2023-01-17T20:50:02.178Z,8.60
2023-01-17T20:55:02.015Z,11.02
2023-01-17T21:00:02.007Z,11.48
2023-01-17T21:05:01.969Z,9.30
2023-01-17T21:10:01.906Z,12.35
2023-01-17T21:15:02.858Z,9.23
2023-01-17T21:20:02.826Z,8.52
2023-01-17T21:25:02.876Z,8.05
2023-01-17T21:30:02.765Z,8.85
2023-01-17T21:35:02.704Z,7.93
2023-01-17T21:40:05.161Z,9.10
2023-01-17T21:45:02.326Z,8.20
2023-01-17T21:50:02.281Z,7.35
2023-01-17T21:55:02.188Z,7.03
2023-01-17T22:00:02.042Z,7.43
2023-01-17T22:05:07.821Z,9.85
2023-01-17T22:10:08.693Z,7.63
2023-01-17T22:15:08.540Z,6.38
2023-01-17T22:20:08.364Z,9.15
2023-01-17T22:25:08.167Z,8.80
2023-01-17T22:30:07.980Z,9.07
2023-01-17T22:35:07.766Z,6.88
2023-01-17T22:40:08.572Z,5.90
2023-01-17T22:45:08.380Z,5.57
2023-01-17T22:50:08.174Z,5.88
2023-01-17T22:55:07.963Z,7.93
2023-01-17T23:00:07.782Z,6.28
2023-01-17T23:05:08.735Z,6.32
2023-01-17T23:10:08.541Z,6.15
2023-01-17T23:15:08.365Z,6.05
2023-01-17T23:20:08.167Z,6.53
2023-01-17T23:25:07.963Z,5.90
2023-01-17T23:30:09.834Z,7.57
2023-01-17T23:35:08.648Z,7.10
2023-01-17T23:40:08.454Z,7.53
2023-01-17T23:45:08.227Z,7.45
2023-01-17T23:50:08.033Z,6.40
2023-01-17T23:55:10.164Z,8.05
